createdAt,value
2022-10-09T00:01:21.961Z,100015.63
2022-10-09T00:03:51.928Z,100010.09
2022-10-09T00:06:22.571Z,99993.75
2022-10-09T00:08:50.766Z,100002.72
2022-10-09T00:11:22.598Z,99997.50
2022-10-09T00:13:51.958Z,99995.34
2022-10-09T00:16:21.699Z,99996.22
2022-10-09T00:18:50.314Z,99999.41
2022-10-09T00:21:21.541Z,99996.91
2022-10-09T00:23:50.774Z,99982.09
2022-10-09T00:26:21.545Z,99962.34
2022-10-09T00:28:50.574Z,99986.81
2022-10-09T00:31:19.005Z,99989.78
2022-10-09T00:33:47.484Z,99992.84
2022-10-09T00:36:17.914Z,99991.97
2022-10-09T00:38:46.240Z,99972.31
2022-10-09T00:41:16.870Z,99989.00
2022-10-09T00:43:48.993Z,99962.97
2022-10-09T00:46:29.736Z,99986.00
2022-10-09T00:49:03.945Z,99967.94
2022-10-09T00:51:33.389Z,99974.31
2022-10-09T00:54:03.084Z,99983.56
2022-10-09T00:56:31.123Z,99986.88
2022-10-09T00:59:01.129Z,99990.56
2022-10-09T01:01:29.342Z,99993.13
2022-10-09T01:03:57.595Z,99988.69
2022-10-09T01:06:37.048Z,99987.28
2022-10-09T01:09:10.365Z,99972.22
2022-10-09T01:11:47.376Z,99971.69
2022-10-09T01:14:24.060Z,99983.44
2022-10-09T01:17:02.321Z,99982.75
2022-10-09T01:19:51.479Z,99985.03
2022-10-09T01:22:34.500Z,99977.03
2022-10-09T01:25:08.050Z,99983.41
2022-10-09T01:27:38.974Z,99979.16
2022-10-09T01:30:10.289Z,99979.91
2022-10-09T01:32:42.291Z,99973.38
2022-10-09T01:35:12.997Z,99963.09
2022-10-09T01:37:43.242Z,99959.03
2022-10-09T01:40:14.917Z,99961.72
2022-10-09T01:42:47.094Z,99987.94
2022-10-09T01:45:16.276Z,99989.88
2022-10-09T01:47:44.947Z,99968.25
2022-10-09T01:50:22.126Z,99980.63
2022-10-09T01:52:52.980Z,99993.53
2022-10-09T01:55:30.070Z,99991.41
2022-10-09T01:58:07.594Z,99993.03
2022-10-09T02:00:38.726Z,99993.75
2022-10-09T02:03:10.900Z,99996.38
2022-10-09T02:05:41.181Z,100004.09
2022-10-09T02:08:10.715Z,100000.97
2022-10-09T02:10:41.017Z,100002.41
2022-10-09T02:13:10.692Z,100001.81
2022-10-09T02:15:46.676Z,99996.28
2022-10-09T02:18:16.816Z,99996.03
2022-10-09T02:20:49.708Z,99980.78
2022-10-09T02:23:19.591Z,99988.03
2022-10-09T02:25:47.904Z,99983.97
2022-10-09T02:28:17.614Z,100001.22
2022-10-09T02:30:57.808Z,100004.13
2022-10-09T02:33:32.175Z,100009.81
2022-10-09T02:36:00.473Z,100006.78
2022-10-09T02:38:28.823Z,100015.97
2022-10-09T02:41:00.060Z,100013.09
2022-10-09T02:43:30.157Z,100008.81
2022-10-09T02:45:58.413Z,100012.28
2022-10-09T02:48:26.928Z,100000.84
2022-10-09T02:50:55.084Z,100002.50
2022-10-09T02:53:23.103Z,100015.13
2022-10-09T02:55:51.225Z,100015.63
2022-10-09T02:58:19.735Z,100010.72
2022-10-09T03:00:52.054Z,100014.44
2022-10-09T03:03:21.357Z,100021.81
2022-10-09T03:05:49.958Z,100010.50
2022-10-09T03:08:19.092Z,100017.38
2022-10-09T03:10:47.452Z,100026.91
2022-10-09T03:13:15.465Z,100016.66
2022-10-09T03:15:44.004Z,100017.13
2022-10-09T03:18:13.691Z,100015.97
2022-10-09T03:20:41.621Z,100020.84
2022-10-09T03:23:09.614Z,100014.66
2022-10-09T03:25:37.821Z,100023.94
2022-10-09T03:28:06.506Z,100019.44
2022-10-09T03:30:34.626Z,100028.34
2022-10-09T03:33:02.767Z,100025.38
2022-10-09T03:35:32.429Z,100026.44
2022-10-09T03:38:00.680Z,100031.78
2022-10-09T03:40:29.017Z,100027.63
2022-10-09T03:42:57.126Z,100030.63
2022-10-09T03:45:25.416Z,100028.81
2022-10-09T03:47:53.441Z,100007.28
2022-10-09T03:50:21.502Z,100031.94
2022-10-09T03:52:51.265Z,100007.97
2022-10-09T03:55:19.494Z,100027.16
2022-10-09T03:57:47.600Z,100026.44
2022-10-09T04:00:16.900Z,100030.84
2022-10-09T04:02:44.972Z,100033.47
2022-10-09T04:05:13.023Z,100025.59
2022-10-09T04:07:41.034Z,100031.94
2022-10-09T04:10:11.232Z,100024.91
2022-10-09T04:12:39.929Z,100032.97
2022-10-09T04:15:09.366Z,100018.22
2022-10-09T04:17:37.950Z,100033.22
2022-10-09T04:20:06.786Z,100036.56
2022-10-09T04:22:34.875Z,100039.66
2022-10-09T04:25:02.832Z,100042.03
2022-10-09T04:27:32.593Z,100035.59
2022-10-09T04:30:00.640Z,100024.88
2022-10-09T04:32:28.901Z,100040.75
2022-10-09T04:34:56.993Z,100046.19
2022-10-09T04:37:25.036Z,100043.94
2022-10-09T04:39:53.100Z,100051.91
2022-10-09T04:42:21.664Z,100050.59
2022-10-09T04:44:51.106Z,100048.63
2022-10-09T04:47:19.335Z,100048.28
2022-10-09T04:49:47.619Z,100052.03
2022-10-09T04:52:15.852Z,100057.41
2022-10-09T04:54:44.012Z,100064.16
2022-10-09T04:57:12.067Z,100059.44
2022-10-09T04:59:40.127Z,100057.09
2022-10-09T05:02:09.784Z,100055.16
2022-10-09T05:04:38.284Z,100063.41
2022-10-09T05:07:06.204Z,100067.19
2022-10-09T05:09:34.200Z,100064.84
2022-10-09T05:12:02.295Z,100063.94
2022-10-09T05:14:30.285Z,100065.50
2022-10-09T05:17:13.802Z,100071.34
2022-10-09T05:19:43.920Z,100055.38
2022-10-09T05:22:12.031Z,100064.19
2022-10-09T05:24:39.937Z,100069.41
2022-10-09T05:27:07.919Z,100069.16
2022-10-09T05:29:35.854Z,100078.09
2022-10-09T05:32:03.949Z,100076.09
2022-10-09T05:34:31.929Z,100078.25
2022-10-09T05:37:01.251Z,100073.00
2022-10-09T05:39:29.377Z,100075.16
2022-10-09T05:41:57.558Z,100065.25
2022-10-09T05:44:25.650Z,100091.56
2022-10-09T05:46:53.678Z,100088.47
2022-10-09T05:49:21.851Z,100088.00
2022-10-09T05:51:50.006Z,100092.78
2022-10-09T05:54:19.803Z,100090.84
2022-10-09T05:56:47.807Z,100085.13
2022-10-09T05:59:19.648Z,100101.28
2022-10-09T06:01:50.323Z,100085.59
2022-10-09T06:04:20.421Z,100084.53
2022-10-09T06:06:49.728Z,100105.13
2022-10-09T06:09:22.490Z,100105.63
2022-10-09T06:11:51.982Z,100104.03
2022-10-09T06:14:22.205Z,100109.94
2022-10-09T06:16:50.680Z,100110.19
2022-10-09T06:19:20.420Z,100110.09
2022-10-09T06:21:49.404Z,100113.00
2022-10-09T06:24:26.934Z,100081.16
2022-10-09T06:26:56.595Z,100119.00
2022-10-09T06:29:24.662Z,100110.72
2022-10-09T06:31:52.833Z,100119.78
2022-10-09T06:34:21.261Z,100123.41
2022-10-09T06:36:49.375Z,100123.13
2022-10-09T06:39:17.857Z,100129.34
2022-10-09T06:41:47.276Z,100132.03
2022-10-09T06:44:17.344Z,100131.63
2022-10-09T06:46:46.942Z,100127.84
2022-10-09T06:49:15.174Z,100131.63
2022-10-09T06:51:43.287Z,100134.44
2022-10-09T06:54:13.321Z,100135.91
2022-10-09T06:56:42.031Z,100140.91
2022-10-09T06:59:13.577Z,100141.56
2022-10-09T07:01:41.931Z,100132.38
2022-10-09T07:04:12.937Z,100135.84
2022-10-09T07:06:42.741Z,100142.59
2022-10-09T07:09:13.109Z,100135.94
2022-10-09T07:11:43.259Z,100137.66
2022-10-09T07:14:15.915Z,100139.78
2022-10-09T07:16:46.925Z,100137.97
2022-10-09T07:19:17.764Z,100139.66
2022-10-09T07:21:48.019Z,100138.81
2022-10-09T07:24:17.289Z,100134.38
2022-10-09T07:26:47.135Z,100124.97
2022-10-09T07:29:17.950Z,100134.28
2022-10-09T07:31:46.731Z,100140.06
2022-10-09T07:34:14.787Z,100137.31
2022-10-09T07:36:42.954Z,100140.75
2022-10-09T07:39:11.270Z,100130.75
2022-10-09T07:41:39.339Z,100136.53
2022-10-09T07:44:07.298Z,100135.63
2022-10-09T07:46:36.788Z,100146.00
2022-10-09T07:49:05.914Z,100138.28
2022-10-09T07:51:34.496Z,100152.38
2022-10-09T07:54:03.022Z,100150.59
2022-10-09T07:56:32.790Z,100149.25
2022-10-09T07:59:03.873Z,100157.19
2022-10-09T08:01:33.832Z,100150.47
2022-10-09T08:04:04.370Z,100139.59
2022-10-09T08:06:32.904Z,100145.16
2022-10-09T08:09:02.459Z,100138.50
2022-10-09T08:11:31.248Z,100132.91
2022-10-09T08:13:59.875Z,100152.09
2022-10-09T08:16:28.992Z,100155.19
2022-10-09T08:18:58.796Z,100148.59
2022-10-09T08:21:29.111Z,100152.56
2022-10-09T08:23:58.950Z,100146.84
2022-10-09T08:26:28.958Z,100148.81
2022-10-09T08:28:59.341Z,100147.06
2022-10-09T08:31:28.602Z,100142.47
2022-10-09T08:33:58.312Z,100144.50
2022-10-09T08:36:28.386Z,100143.25
2022-10-09T08:38:56.695Z,100131.97
2022-10-09T08:41:35.630Z,100132.34
2022-10-09T08:44:07.297Z,100132.09
2022-10-09T08:46:45.318Z,100126.47
2022-10-09T08:49:26.141Z,100136.25
2022-10-09T08:51:59.285Z,100125.69
2022-10-09T08:54:34.591Z,100121.91
2022-10-09T08:57:05.618Z,100114.25
2022-10-09T08:59:33.680Z,100117.59
2022-10-09T09:02:09.752Z,100108.47
2022-10-09T09:05:02.799Z,100112.44
2022-10-09T09:07:43.523Z,100116.75
2022-10-09T09:10:18.923Z,100123.38
2022-10-09T09:12:52.087Z,100119.06
2022-10-09T09:15:40.204Z,100095.84
2022-10-09T09:18:22.912Z,100107.06
2022-10-09T09:20:54.239Z,100106.69
2022-10-09T09:23:28.169Z,100098.84
2022-10-09T09:25:57.084Z,100098.81
2022-10-09T09:28:30.415Z,100097.91
2022-10-09T09:31:03.340Z,100098.25
2022-10-09T09:33:42.349Z,100098.09
2022-10-09T09:36:19.082Z,100104.06
2022-10-09T09:39:26.006Z,100096.56
2022-10-09T09:41:38.802Z,100093.28
2022-10-09T09:44:08.813Z,100098.72
2022-10-09T09:46:38.782Z,100089.88
2022-10-09T09:49:17.153Z,100091.28
2022-10-09T09:51:45.797Z,100084.84
2022-10-09T09:54:20.738Z,100080.59
2022-10-09T09:59:40.128Z,100082.25
2022-10-09T10:02:14.992Z,100084.00
2022-10-09T10:04:52.170Z,100082.81
2022-10-09T10:07:33.673Z,100077.03
2022-10-09T10:10:11.561Z,100080.06
2022-10-09T10:12:41.953Z,100076.41
2022-10-09T10:15:22.643Z,100073.63
2022-10-09T10:18:00.117Z,100072.78
2022-10-09T10:20:29.701Z,100071.00
2022-10-09T10:22:59.427Z,100066.25
2022-10-09T10:25:33.211Z,100068.16
2022-10-09T10:28:07.152Z,100064.38
2022-10-09T10:30:36.611Z,100057.00
2022-10-09T10:33:14.917Z,100059.84
2022-10-09T10:35:45.396Z,100058.03
2022-10-09T10:38:18.996Z,100045.69
2022-10-09T10:40:54.008Z,100053.31
2022-10-09T10:43:36.805Z,100049.03
2022-10-09T10:46:13.412Z,100041.63
2022-10-09T10:48:43.011Z,100039.13
2022-10-09T10:51:45.118Z,100039.97
2022-10-09T10:54:32.172Z,100030.34
2022-10-09T10:57:09.721Z,100035.72
2022-10-09T10:59:43.159Z,100028.00
2022-10-09T11:02:50.292Z,100022.72
2022-10-09T11:05:27.168Z,100028.22
2022-10-09T11:08:09.157Z,100024.94
2022-10-09T11:10:46.082Z,100028.16
2022-10-09T11:13:24.127Z,100018.72
2022-10-09T11:16:01.642Z,100024.47
2022-10-09T11:18:47.762Z,100015.19
2022-10-09T11:21:28.798Z,100008.91
2022-10-09T11:24:13.035Z,100012.22
2022-10-09T11:26:49.233Z,100010.56
2022-10-09T11:29:24.385Z,100009.88
2022-10-09T11:31:57.331Z,100005.13
2022-10-09T11:34:31.598Z,99987.97
2022-10-09T11:37:01.627Z,100002.16
2022-10-09T11:39:33.527Z,99985.94
2022-10-09T11:42:02.181Z,99988.09
2022-10-09T11:44:43.920Z,100000.03
2022-10-09T11:47:23.411Z,99997.25
2022-10-09T11:50:15.949Z,99997.56
2022-10-09T11:52:51.433Z,99989.25
2022-10-09T11:55:23.101Z,99988.75
2022-10-09T11:57:51.507Z,99984.78
2022-10-09T12:00:32.508Z,99984.75
2022-10-09T12:03:03.243Z,99968.47
2022-10-09T12:05:39.934Z,99973.66
2022-10-09T12:08:14.099Z,99953.69
2022-10-09T12:10:52.053Z,99979.28
2022-10-09T12:13:42.101Z,99972.88
2022-10-09T12:16:36.876Z,99976.00
2022-10-09T12:19:12.566Z,99963.69
2022-10-09T12:21:48.521Z,99961.88
2022-10-09T12:24:21.040Z,99970.59
2022-10-09T12:26:51.439Z,99966.50
2022-10-09T12:29:28.851Z,99963.69
2022-10-09T12:32:04.160Z,99965.13
2022-10-09T12:34:35.805Z,99947.66
2022-10-09T12:37:18.931Z,99940.91
2022-10-09T12:39:47.972Z,99959.69
2022-10-09T12:42:23.012Z,99953.41
2022-10-09T12:44:53.677Z,99950.78
2022-10-09T12:47:27.066Z,99959.09
2022-10-09T12:50:02.888Z,99936.69
2022-10-09T12:52:32.686Z,99952.13
2022-10-09T12:55:03.112Z,99962.59
2022-10-09T12:57:31.433Z,99959.13
2022-10-09T12:59:59.850Z,99956.00
2022-10-09T13:02:29.345Z,99957.69
2022-10-09T13:05:00.662Z,99965.50
2022-10-09T13:07:32.517Z,99949.47
2022-10-09T13:10:07.616Z,99943.69
2022-10-09T13:12:36.420Z,99951.09
2022-10-09T13:15:06.686Z,99946.97
2022-10-09T13:17:38.917Z,99946.56
2022-10-09T13:20:26.618Z,99944.28
2022-10-09T13:22:55.994Z,99936.47
2022-10-09T13:25:24.512Z,99928.06
2022-10-09T13:27:53.036Z,99947.81
2022-10-09T13:30:21.277Z,99943.69
2022-10-09T13:32:50.949Z,99937.31
2022-10-09T13:35:18.932Z,99935.88
2022-10-09T13:37:47.207Z,99924.13
2022-10-09T13:40:19.878Z,99933.63
2022-10-09T13:42:53.914Z,99938.53
2022-10-09T13:45:21.920Z,99937.09
2022-10-09T13:47:51.886Z,99922.13
2022-10-09T13:50:20.831Z,99848.25
2022-10-09T13:52:48.904Z,99933.75
2022-10-09T13:55:17.307Z,99932.13
2022-10-09T13:57:45.465Z,99925.19
2022-10-09T14:00:14.682Z,99928.50
2022-10-09T14:02:42.609Z,99931.97
2022-10-09T14:05:12.369Z,99933.81
2022-10-09T14:07:40.263Z,99937.31
2022-10-09T14:10:08.964Z,99920.66
2022-10-09T14:12:37.214Z,99931.53
2022-10-09T14:15:06.014Z,99931.53
2022-10-09T14:17:33.975Z,99930.75
2022-10-09T14:20:01.960Z,99937.91
2022-10-09T14:22:31.362Z,99934.63
2022-10-09T14:24:59.238Z,99941.59
2022-10-09T14:27:27.259Z,99930.66
2022-10-09T14:29:57.241Z,99936.81
2022-10-09T14:32:25.680Z,99931.06
2022-10-09T14:34:54.017Z,99925.72
2022-10-09T14:37:40.672Z,99936.63
2022-10-09T14:40:12.702Z,99935.78
2022-10-09T14:42:41.315Z,99920.56
2022-10-09T14:45:10.839Z,99942.56
2022-10-09T14:47:38.947Z,99936.19
2022-10-09T14:50:07.849Z,99940.28
2022-10-09T14:52:35.964Z,99926.88
2022-10-09T14:55:03.938Z,99944.97
2022-10-09T14:57:35.529Z,99952.94
2022-10-09T15:00:05.631Z,99957.44
2022-10-09T15:02:33.710Z,99949.63
2022-10-09T15:05:01.784Z,99955.34
2022-10-09T15:07:29.949Z,99952.44
2022-10-09T15:09:58.072Z,99940.88
2022-10-09T15:12:26.432Z,99951.16
2022-10-09T15:14:55.838Z,99958.69
2022-10-09T15:17:23.878Z,99957.66
2022-10-09T15:19:54.086Z,99962.53
2022-10-09T15:22:22.049Z,99957.78
2022-10-09T15:24:50.654Z,99960.81
2022-10-09T15:27:19.494Z,99961.56
2022-10-09T15:29:47.728Z,99963.19
2022-10-09T15:32:18.130Z,99963.97
2022-10-09T15:34:46.194Z,99964.31
2022-10-09T15:37:14.350Z,99963.06
2022-10-09T15:39:42.648Z,99978.59
2022-10-09T15:42:10.775Z,99958.28
2022-10-09T15:44:38.744Z,99981.69
2022-10-09T15:47:06.844Z,99989.56
2022-10-09T15:49:36.780Z,99984.97
2022-10-09T15:52:05.246Z,99998.69
2022-10-09T15:54:33.285Z,99999.06
2022-10-09T15:57:02.147Z,99994.41
2022-10-09T15:59:31.705Z,100006.91
2022-10-09T16:01:59.703Z,100009.75
2022-10-09T16:04:29.048Z,100017.75
2022-10-09T16:06:59.246Z,100011.97
2022-10-09T16:09:27.600Z,100016.03
2022-10-09T16:11:55.829Z,100014.75
2022-10-09T16:14:23.967Z,100010.16
2022-10-09T16:16:52.066Z,100018.72
2022-10-09T16:19:20.223Z,100012.19
2022-10-09T16:21:49.839Z,100014.88
2022-10-09T16:24:20.259Z,100025.97
2022-10-09T16:26:51.044Z,100031.03
2022-10-09T16:29:19.596Z,100038.72
2022-10-09T16:31:47.622Z,100033.13
2022-10-09T16:34:15.680Z,100045.50
2022-10-09T16:36:44.265Z,100037.22
2022-10-09T16:39:12.536Z,100051.91
2022-10-09T16:41:42.282Z,100057.50
2022-10-09T16:44:13.842Z,100037.28
2022-10-09T16:46:42.043Z,100058.06
2022-10-09T16:49:19.887Z,100055.25
2022-10-09T16:51:50.842Z,100063.31
2022-10-09T16:54:18.883Z,100060.44
2022-10-09T16:56:48.310Z,100064.97
2022-10-09T16:59:16.325Z,100069.78
2022-10-09T17:01:47.003Z,100072.16
2022-10-09T17:04:15.091Z,100069.69
2022-10-09T17:06:44.135Z,100075.34
2022-10-09T17:09:14.472Z,100068.75
2022-10-09T17:11:43.339Z,100081.91
2022-10-09T17:14:13.030Z,100076.09
2022-10-09T17:16:42.941Z,100075.63
2022-10-09T17:19:11.256Z,100082.94
2022-10-09T17:21:39.408Z,100069.94
2022-10-09T17:24:08.647Z,100081.53
2022-10-09T17:26:36.960Z,100085.72
2022-10-09T17:29:05.402Z,100086.41
2022-10-09T17:31:35.406Z,100089.25
2022-10-09T17:34:05.684Z,100099.41
2022-10-09T17:36:36.857Z,100099.72
2022-10-09T17:39:06.149Z,100095.94
2022-10-09T17:41:35.738Z,100104.97
2022-10-09T17:44:04.137Z,100106.16
2022-10-09T17:46:32.767Z,100099.72
2022-10-09T17:49:02.362Z,100099.91
2022-10-09T17:51:32.567Z,100109.72
2022-10-09T17:54:03.254Z,100112.22
2022-10-09T17:56:33.182Z,100114.69
2022-10-09T17:59:02.813Z,100115.38
2022-10-09T18:01:31.320Z,100113.56
2022-10-09T18:04:01.258Z,100113.44
2022-10-09T18:06:32.460Z,100126.34
2022-10-09T18:09:00.610Z,100113.44
2022-10-09T18:11:30.007Z,100124.69
2022-10-09T18:13:58.157Z,100106.31
2022-10-09T18:16:35.441Z,100132.34
2022-10-09T18:19:07.911Z,100135.00
2022-10-09T18:21:36.790Z,100139.28
2022-10-09T18:24:05.290Z,100142.25
2022-10-09T18:26:33.625Z,100153.34
2022-10-09T18:29:02.423Z,100153.91
2022-10-09T18:31:31.202Z,100150.31
2022-10-09T18:34:00.746Z,100160.44
2022-10-09T18:36:36.530Z,100158.94
2022-10-09T18:39:08.105Z,100136.00
2022-10-09T18:41:37.560Z,100165.38
2022-10-09T18:44:07.338Z,100170.91
2022-10-09T18:46:39.139Z,100178.81
2022-10-09T18:49:09.696Z,100177.78
2022-10-09T18:51:42.360Z,100185.03
2022-10-09T18:54:17.143Z,100183.78
2022-10-09T18:56:46.363Z,100186.88
2022-10-09T18:59:16.782Z,100185.69
2022-10-09T19:01:45.025Z,100197.63
2022-10-09T19:04:13.546Z,100195.13
2022-10-09T19:06:42.956Z,100191.66
2022-10-09T19:09:11.130Z,100209.44
2022-10-09T19:11:39.883Z,100207.31
2022-10-09T19:14:08.041Z,100213.03
2022-10-09T19:16:36.340Z,100202.13
2022-10-09T19:19:04.916Z,100211.22
2022-10-09T19:21:33.150Z,100187.69
2022-10-09T19:24:06.914Z,100218.69
2022-10-09T19:26:35.451Z,100223.66
2022-10-09T19:29:06.725Z,100225.31
2022-10-09T19:31:35.596Z,100221.84
2022-10-09T19:34:05.187Z,100213.84
2022-10-09T19:36:35.118Z,100233.84
2022-10-09T19:39:06.492Z,100161.31
2022-10-09T19:41:34.532Z,100229.16
2022-10-09T19:44:02.645Z,100240.13
2022-10-09T19:46:31.002Z,100231.13
2022-10-09T19:48:58.962Z,100237.78
2022-10-09T19:51:27.920Z,100222.75
2022-10-09T19:53:56.199Z,100242.31
2022-10-09T19:56:28.191Z,100238.19
2022-10-09T19:58:58.013Z,100244.78
2022-10-09T20:01:28.030Z,100239.66
2022-10-09T20:03:57.246Z,100196.00
2022-10-09T20:06:25.534Z,100256.56
2022-10-09T20:08:54.258Z,100256.41
2022-10-09T20:11:23.348Z,100266.94
2022-10-09T20:13:55.997Z,100240.91
2022-10-09T20:16:25.737Z,100256.34
2022-10-09T20:18:56.048Z,100267.78
2022-10-09T20:21:24.248Z,100252.31
2022-10-09T20:23:52.868Z,100267.47
2022-10-09T20:26:23.310Z,100265.06
2022-10-09T20:28:53.967Z,100262.50
2022-10-09T20:31:24.797Z,100262.72
2022-10-09T20:33:53.694Z,100262.81
2022-10-09T20:36:24.025Z,100277.97
2022-10-09T20:38:52.257Z,100276.34
2022-10-09T20:41:20.235Z,100277.69
2022-10-09T20:43:53.118Z,100274.88
2022-10-09T20:46:22.565Z,100281.97
2022-10-09T20:48:51.407Z,100291.53
2022-10-09T20:51:21.171Z,100290.13
2022-10-09T20:53:55.858Z,100295.56
2022-10-09T20:56:25.578Z,100279.91
2022-10-09T20:58:55.291Z,100295.13
2022-10-09T21:01:24.150Z,100305.47
2022-10-09T21:03:52.319Z,100311.19
2022-10-09T21:06:23.163Z,100314.25
2022-10-09T21:08:51.507Z,100309.09
2022-10-09T21:11:20.747Z,100313.66
2022-10-09T21:13:49.531Z,100303.63
2022-10-09T21:16:21.923Z,100312.94
2022-10-09T21:18:53.800Z,100321.38
2022-10-09T21:21:21.915Z,100311.84
2022-10-09T21:23:51.953Z,100311.31
2022-10-09T21:26:23.432Z,100308.81
2022-10-09T21:28:58.243Z,100311.00
2022-10-09T21:31:31.243Z,100310.00
2022-10-09T21:34:00.311Z,100321.38
2022-10-09T21:36:35.538Z,100319.13
2022-10-09T21:39:03.761Z,100316.28
2022-10-09T21:41:32.952Z,100303.28
2022-10-09T21:44:00.920Z,100310.13
2022-10-09T21:46:30.536Z,100324.34
2022-10-09T21:48:58.905Z,100330.94
2022-10-09T21:51:27.904Z,100328.84
2022-10-09T21:53:56.606Z,100323.22
2022-10-09T21:56:24.855Z,100311.59
2022-10-09T21:58:52.892Z,100322.94
2022-10-09T22:01:20.889Z,100322.41
2022-10-09T22:03:50.247Z,100329.31
2022-10-09T22:06:19.496Z,100326.44
2022-10-09T22:08:47.995Z,100334.53
2022-10-09T22:11:17.128Z,100340.78
2022-10-09T22:13:45.319Z,100344.38
2022-10-09T22:16:15.524Z,100309.63
2022-10-09T22:18:44.126Z,100340.06
2022-10-09T22:21:16.306Z,100339.81
2022-10-09T22:23:44.892Z,100347.50
2022-10-09T22:26:14.634Z,100343.69
2022-10-09T22:28:42.837Z,100341.56
2022-10-09T22:31:14.349Z,100346.91
2022-10-09T22:33:42.925Z,100335.94
2022-10-09T22:36:14.537Z,100341.78
2022-10-09T22:38:43.053Z,100345.50
2022-10-09T22:41:13.791Z,100348.09
2022-10-09T22:43:42.521Z,100354.66
2022-10-09T22:46:13.448Z,100350.97
2022-10-09T22:48:42.229Z,100355.44
2022-10-09T22:51:12.313Z,100364.41
2022-10-09T22:53:41.940Z,100357.53
2022-10-09T22:56:12.783Z,100359.63
2022-10-09T22:58:40.860Z,100349.19
2022-10-09T23:01:11.178Z,100348.31
2022-10-09T23:03:39.226Z,100352.06
2022-10-09T23:06:09.346Z,100361.25
2022-10-09T23:08:38.866Z,100361.44
2022-10-09T23:11:08.830Z,100372.84
2022-10-09T23:13:37.664Z,100370.78
2022-10-09T23:16:07.838Z,100376.44
2022-10-09T23:18:37.395Z,100373.75
2022-10-09T23:21:07.031Z,100376.53
2022-10-09T23:23:35.280Z,100372.91
2022-10-09T23:26:05.884Z,100367.28
2022-10-09T23:28:35.828Z,100360.47
2022-10-09T23:31:04.728Z,100374.72
2022-10-09T23:33:33.326Z,100377.06
2022-10-09T23:36:03.114Z,100371.34
2022-10-09T23:38:31.133Z,100380.69
2022-10-09T23:41:00.827Z,100382.97
2022-10-09T23:43:29.710Z,100366.69
2022-10-09T23:46:00.805Z,100379.53
2022-10-09T23:48:29.761Z,100381.53
2022-10-09T23:50:58.130Z,100379.06
2022-10-09T23:53:27.610Z,100377.56
2022-10-09T23:55:55.907Z,100365.28
2022-10-09T23:58:23.985Z,100392.78
